createdAt,value
2018-04-30T00:01:30.146Z,13.70
2018-04-30T00:03:56.271Z,13.70
2018-04-30T00:06:22.394Z,13.70
2018-04-30T00:08:48.521Z,13.70
2018-04-30T00:11:14.684Z,13.60
2018-04-30T00:13:40.773Z,13.60
2018-04-30T00:16:06.913Z,13.50
2018-04-30T00:18:33.058Z,13.50
2018-04-30T00:20:59.189Z,13.50
2018-04-30T00:23:25.344Z,13.40
2018-04-30T00:25:51.477Z,13.40
2018-04-30T00:28:17.574Z,13.40
2018-04-30T00:30:43.692Z,13.30
2018-04-30T00:33:09.789Z,13.30
2018-04-30T00:35:35.897Z,13.30
2018-04-30T00:38:01.989Z,13.40
2018-04-30T00:40:28.829Z,13.40
2018-04-30T00:42:55.884Z,13.40
2018-04-30T00:45:22.726Z,13.40
2018-04-30T00:47:49.604Z,13.40
2018-04-30T00:50:15.789Z,13.40
2018-04-30T00:52:42.657Z,13.50
2018-04-30T00:55:08.769Z,13.50
2018-04-30T00:57:35.655Z,13.50
2018-04-30T01:00:01.796Z,13.50
2018-04-30T01:02:27.941Z,13.50
2018-04-30T01:04:54.069Z,13.50
2018-04-30T01:07:20.192Z,13.50
2018-04-30T01:09:46.295Z,13.50
2018-04-30T01:12:12.413Z,13.50
2018-04-30T01:14:38.518Z,13.50
2018-04-30T01:17:04.630Z,13.50
2018-04-30T01:19:31.491Z,13.50
2018-04-30T01:21:57.605Z,13.50
2018-04-30T01:24:23.739Z,13.50
2018-04-30T01:26:49.857Z,13.50
2018-04-30T01:29:16.728Z,13.50
2018-04-30T01:31:44.435Z,13.50
2018-04-30T01:34:14.126Z,13.50
2018-04-30T01:36:41.995Z,13.50
2018-04-30T01:39:09.011Z,13.60
2018-04-30T01:41:36.907Z,13.60
2018-04-30T01:44:03.507Z,13.50
2018-04-30T01:46:30.457Z,13.50
2018-04-30T01:49:04.138Z,13.50
2018-04-30T01:51:32.339Z,13.50
2018-04-30T01:54:00.777Z,13.50
2018-04-30T01:56:27.566Z,13.50
2018-04-30T01:58:56.184Z,13.50
2018-04-30T02:01:23.355Z,13.60
2018-04-30T02:03:50.476Z,13.50
2018-04-30T02:06:17.609Z,13.60
2018-04-30T02:08:44.417Z,13.50
2018-04-30T02:11:14.546Z,13.50
2018-04-30T02:13:42.006Z,13.50
2018-04-30T02:16:08.352Z,13.50
2018-04-30T02:18:38.754Z,13.50
2018-04-30T02:21:04.959Z,13.40
2018-04-30T02:23:34.511Z,13.30
2018-04-30T02:26:01.502Z,13.30
2018-04-30T02:28:30.433Z,13.30
2018-04-30T02:30:57.438Z,13.20
2018-04-30T02:33:24.467Z,13.20
2018-04-30T02:35:52.583Z,13.20
2018-04-30T02:38:19.103Z,13.10
2018-04-30T02:40:49.082Z,13.20
2018-04-30T02:43:17.401Z,13.20
2018-04-30T02:45:44.103Z,13.20
2018-04-30T02:48:10.375Z,13.10
2018-04-30T02:50:38.639Z,13.10
2018-04-30T02:53:07.259Z,13.10
2018-04-30T02:55:37.306Z,13.10
2018-04-30T02:58:04.039Z,13.00
2018-04-30T03:00:31.820Z,13.00
2018-04-30T03:03:01.332Z,12.90
2018-04-30T03:05:32.151Z,13.00
2018-04-30T03:08:05.590Z,13.00
2018-04-30T03:10:36.738Z,13.00
2018-04-30T03:13:05.543Z,12.90
2018-04-30T03:15:32.015Z,12.90
2018-04-30T03:17:59.007Z,13.00
2018-04-30T03:20:27.411Z,13.00
2018-04-30T03:23:01.540Z,13.00
2018-04-30T03:25:31.509Z,13.00
2018-04-30T03:28:03.811Z,13.00
2018-04-30T03:30:35.604Z,13.00
2018-04-30T03:33:08.388Z,13.00
2018-04-30T03:35:36.862Z,12.90
2018-04-30T03:38:05.681Z,12.90
2018-04-30T03:40:40.666Z,13.00
2018-04-30T03:43:08.999Z,12.90
2018-04-30T03:45:38.452Z,13.00
2018-04-30T03:48:06.055Z,13.00
2018-04-30T03:50:34.646Z,13.00
2018-04-30T03:53:04.737Z,13.00
2018-04-30T03:55:33.916Z,13.00
2018-04-30T03:58:03.705Z,13.00
2018-04-30T04:00:43.437Z,13.00
2018-04-30T04:03:23.076Z,13.00
2018-04-30T04:06:00.853Z,13.00
2018-04-30T04:08:28.018Z,12.90
2018-04-30T04:10:55.661Z,12.90
2018-04-30T04:13:22.504Z,12.90
2018-04-30T04:15:51.305Z,12.90
2018-04-30T04:18:20.625Z,12.80
2018-04-30T04:20:47.927Z,12.80
2018-04-30T04:23:14.733Z,12.70
2018-04-30T04:25:41.433Z,12.80
2018-04-30T04:28:08.519Z,12.80
2018-04-30T04:30:35.612Z,12.60
2018-04-30T04:33:01.883Z,12.50
2018-04-30T04:35:29.056Z,12.40
2018-04-30T04:37:56.255Z,12.30
2018-04-30T04:40:23.292Z,12.30
2018-04-30T04:42:51.325Z,12.20
2018-04-30T04:45:17.960Z,12.20
2018-04-30T04:47:44.974Z,12.10
2018-04-30T04:50:12.478Z,12.00
2018-04-30T04:52:39.545Z,12.10
2018-04-30T04:55:08.192Z,12.10
2018-04-30T04:57:36.625Z,12.10
2018-04-30T05:00:03.871Z,12.20
2018-04-30T05:02:32.230Z,12.20
2018-04-30T05:05:00.697Z,12.20
2018-04-30T05:07:29.561Z,12.30
2018-04-30T05:09:57.459Z,12.30
2018-04-30T05:12:24.838Z,12.30
2018-04-30T05:14:53.441Z,12.30
2018-04-30T07:20:10.867Z,11.90
2018-04-30T07:22:37.925Z,11.90
2018-04-30T07:25:05.029Z,11.80
2018-04-30T07:27:31.281Z,11.80
2018-04-30T07:29:57.702Z,11.80
2018-04-30T07:35:19.797Z,11.70
2018-04-30T07:37:46.628Z,11.70
2018-04-30T07:40:16.790Z,11.60
2018-04-30T07:42:42.930Z,11.50
2018-04-30T07:45:09.335Z,11.60
2018-04-30T07:47:35.846Z,11.70
2018-04-30T07:50:02.794Z,11.90
2018-04-30T07:52:30.048Z,12.00
2018-04-30T07:55:10.561Z,12.00
2018-04-30T07:57:36.999Z,12.00
2018-04-30T08:00:08.480Z,12.00
2018-04-30T08:02:35.021Z,12.10
2018-04-30T08:05:01.244Z,12.00
2018-04-30T08:07:27.457Z,11.90
2018-04-30T08:09:53.726Z,11.90
2018-04-30T08:12:21.745Z,11.90
2018-04-30T08:14:47.911Z,12.00
2018-04-30T08:17:14.246Z,12.10
2018-04-30T08:19:40.394Z,12.20
2018-04-30T08:22:06.993Z,12.20
2018-04-30T08:24:33.313Z,12.20
2018-04-30T08:26:59.681Z,12.20
2018-04-30T08:29:26.741Z,12.20
2018-04-30T08:31:53.197Z,12.20
2018-04-30T08:34:19.337Z,12.20
2018-04-30T08:36:45.880Z,12.10
2018-04-30T08:39:12.197Z,12.10
2018-04-30T08:41:39.414Z,12.20
2018-04-30T08:44:06.461Z,12.20
2018-04-30T08:46:34.031Z,12.40
2018-04-30T08:49:01.162Z,12.50
2018-04-30T08:51:27.445Z,12.50
2018-04-30T08:53:53.705Z,12.60
2018-04-30T08:56:20.123Z,12.60
2018-04-30T08:58:50.976Z,12.70
2018-04-30T09:01:19.435Z,12.80
2018-04-30T09:03:54.328Z,12.80
2018-04-30T09:09:30.528Z,12.90
2018-04-30T09:12:04.812Z,13.00
2018-04-30T09:14:42.469Z,13.10
2018-04-30T09:17:10.641Z,13.30
2018-04-30T09:19:39.646Z,13.40
2018-04-30T09:22:14.011Z,13.40
2018-04-30T09:27:30.321Z,13.40
2018-04-30T09:29:59.445Z,13.40
2018-04-30T09:32:29.998Z,13.40
2018-04-30T09:37:36.006Z,13.40
2018-04-30T09:40:06.901Z,13.40
2018-04-30T09:42:39.850Z,13.40
2018-04-30T09:45:11.932Z,13.40
2018-04-30T09:47:41.827Z,13.50
2018-04-30T10:14:25.794Z,13.90
2018-04-30T10:19:50.354Z,14.40
2018-04-30T10:22:23.470Z,14.30
2018-04-30T11:21:37.868Z,14.90
2018-04-30T11:24:15.967Z,14.70
2018-04-30T11:26:42.094Z,14.70
2018-04-30T11:29:08.267Z,14.20
2018-04-30T11:31:34.422Z,14.10
2018-04-30T11:34:00.684Z,14.30
2018-04-30T11:36:26.801Z,14.70
2018-04-30T11:38:52.921Z,14.70
2018-04-30T11:41:19.025Z,14.60
2018-04-30T11:43:45.177Z,14.90
2018-04-30T11:46:11.322Z,15.10
2018-04-30T11:48:38.202Z,15.60
2018-04-30T11:51:04.364Z,15.50
2018-04-30T11:53:30.516Z,15.80
2018-04-30T11:55:56.854Z,15.60
2018-04-30T11:58:23.741Z,15.90
2018-04-30T12:00:49.958Z,15.90
2018-04-30T12:03:16.065Z,16.00
2018-04-30T12:05:42.962Z,16.00
2018-04-30T12:08:09.097Z,16.00
2018-04-30T12:10:35.193Z,16.00
2018-04-30T12:13:01.313Z,15.80
2018-04-30T12:15:27.441Z,15.30
2018-04-30T12:17:53.573Z,14.80
2018-04-30T12:20:19.697Z,14.70
2018-04-30T12:22:45.849Z,14.90
2018-04-30T12:25:11.989Z,14.80
2018-04-30T12:27:38.174Z,14.90
2018-04-30T12:30:04.478Z,14.60
2018-04-30T12:32:30.792Z,14.30
2018-04-30T12:34:57.881Z,13.60
2018-04-30T12:37:24.095Z,13.60
2018-04-30T12:39:50.248Z,13.30
2018-04-30T12:42:16.581Z,13.30
2018-04-30T12:44:42.826Z,13.30
2018-04-30T12:47:09.061Z,13.40
2018-04-30T12:49:35.258Z,13.50
2018-04-30T12:52:02.129Z,14.30
2018-04-30T12:54:28.265Z,14.30
2018-04-30T12:56:54.784Z,14.70
2018-04-30T12:59:20.921Z,15.10
2018-04-30T13:01:47.070Z,15.30
2018-04-30T13:04:14.111Z,15.50
2018-04-30T13:06:40.800Z,15.70
2018-04-30T13:09:07.049Z,15.80
2018-04-30T13:11:34.017Z,15.50
2018-04-30T13:14:00.186Z,15.50
2018-04-30T13:16:26.357Z,15.40
2018-04-30T13:18:52.485Z,15.30
2018-04-30T13:21:18.673Z,14.90
2018-04-30T13:23:44.850Z,14.70
2018-04-30T13:26:10.965Z,14.40
2018-04-30T13:28:37.224Z,14.00
2018-04-30T13:31:03.886Z,13.50
2018-04-30T13:36:18.258Z,13.00
2018-04-30T13:38:47.007Z,12.40
2018-04-30T13:41:13.307Z,12.10
2018-04-30T13:43:39.710Z,12.10
2018-04-30T13:46:06.602Z,12.10
2018-04-30T13:48:33.652Z,12.30
2018-04-30T13:51:00.214Z,12.40
2018-04-30T13:53:26.541Z,12.60
2018-04-30T13:55:53.544Z,12.80
2018-04-30T13:58:19.919Z,12.80
2018-04-30T14:00:46.115Z,13.10
2018-04-30T14:03:12.419Z,13.30
2018-04-30T14:05:38.711Z,13.40
2018-04-30T14:08:05.040Z,13.30
2018-04-30T14:10:32.093Z,13.10
2018-04-30T14:12:58.577Z,13.20
2018-04-30T14:15:25.924Z,13.20
2018-04-30T14:17:52.430Z,13.30
2018-04-30T14:20:19.169Z,13.20
2018-04-30T14:22:47.084Z,13.30
2018-04-30T14:25:14.613Z,13.30
2018-04-30T14:27:41.055Z,13.20
2018-04-30T14:30:07.897Z,13.30
2018-04-30T14:32:34.633Z,13.40
2018-04-30T14:35:01.171Z,13.30
2018-04-30T14:37:28.078Z,13.30
2018-04-30T14:39:54.769Z,13.30
2018-04-30T14:42:26.857Z,13.40
2018-04-30T14:44:55.120Z,13.40
2018-04-30T14:47:21.443Z,13.50
2018-04-30T14:49:49.056Z,13.60
2018-04-30T14:52:17.484Z,13.70
2018-04-30T14:54:44.255Z,13.80
2018-04-30T14:57:12.729Z,13.80
2018-04-30T14:59:41.038Z,13.90
2018-04-30T15:02:08.971Z,13.90
2018-04-30T15:04:35.352Z,14.10
2018-04-30T15:07:03.379Z,14.20
2018-04-30T15:09:30.480Z,14.10
2018-04-30T15:11:57.263Z,14.10
2018-04-30T15:14:23.801Z,14.00
2018-04-30T15:16:50.059Z,14.20
2018-04-30T15:19:17.127Z,14.50
2018-04-30T15:21:43.665Z,14.90
2018-04-30T15:24:10.274Z,15.00
2018-04-30T15:26:36.698Z,15.00
2018-04-30T15:29:03.179Z,15.10
2018-04-30T15:31:29.527Z,15.40
2018-04-30T15:33:56.638Z,15.30
2018-04-30T15:36:23.058Z,15.30
2018-04-30T15:38:49.457Z,15.20
2018-04-30T15:41:15.968Z,15.10
2018-04-30T15:43:42.427Z,15.10
2018-04-30T15:46:08.930Z,14.90
2018-04-30T15:48:36.076Z,14.30
2018-04-30T15:51:03.424Z,14.30
2018-04-30T15:53:31.640Z,14.30
2018-04-30T15:55:58.008Z,14.70
2018-04-30T15:58:24.352Z,15.70
2018-04-30T16:00:51.393Z,15.90
2018-04-30T16:03:17.855Z,15.80
2018-04-30T16:05:45.735Z,17.10
2018-04-30T16:08:13.101Z,17.00
2018-04-30T16:10:39.283Z,17.00
2018-04-30T16:13:05.391Z,17.00
2018-04-30T16:15:31.748Z,17.10
2018-04-30T16:17:57.872Z,17.20
2018-04-30T16:20:24.079Z,17.30
2018-04-30T16:22:50.152Z,17.00
2018-04-30T16:25:16.508Z,16.10
2018-04-30T16:27:42.738Z,15.30
2018-04-30T16:30:09.049Z,14.80
2018-04-30T16:32:35.939Z,13.70
2018-04-30T16:35:06.046Z,13.70
2018-04-30T16:37:32.316Z,13.60
2018-04-30T16:39:58.607Z,13.60
2018-04-30T16:42:25.372Z,13.60
2018-04-30T16:44:51.633Z,13.60
2018-04-30T16:47:18.351Z,13.80
2018-04-30T16:49:45.630Z,13.60
2018-04-30T16:52:12.767Z,13.50
2018-04-30T16:54:40.098Z,13.60
2018-04-30T16:57:08.290Z,13.60
2018-04-30T16:59:35.313Z,13.30
2018-04-30T17:02:03.267Z,13.30
2018-04-30T17:04:30.362Z,13.20
2018-04-30T17:06:56.827Z,13.20
2018-04-30T17:09:23.116Z,13.10
2018-04-30T17:11:49.669Z,13.10
2018-04-30T17:14:16.213Z,13.00
2018-04-30T17:16:43.323Z,12.90
2018-04-30T17:19:09.596Z,12.90
2018-04-30T17:21:35.804Z,12.80
2018-04-30T17:24:02.394Z,12.80
2018-04-30T17:26:28.951Z,12.70
2018-04-30T17:28:56.100Z,12.60
2018-04-30T17:31:22.331Z,12.60
2018-04-30T17:33:48.635Z,12.50
2018-04-30T17:36:15.173Z,12.30
2018-04-30T17:38:41.778Z,12.00
2018-04-30T17:41:08.986Z,12.00
2018-04-30T17:43:35.481Z,12.00
2018-04-30T17:46:02.841Z,12.00
2018-04-30T17:48:30.533Z,12.00
2018-04-30T17:50:57.630Z,11.80
2018-04-30T17:53:24.009Z,11.80
2018-04-30T17:55:50.734Z,11.80
2018-04-30T17:58:17.129Z,11.70
2018-04-30T18:00:44.303Z,11.60
2018-04-30T18:05:43.874Z,11.50
2018-04-30T18:08:10.342Z,11.50
2018-04-30T18:10:37.267Z,11.30
2018-04-30T18:13:03.639Z,11.10
2018-04-30T18:15:29.915Z,11.10
2018-04-30T18:17:56.362Z,11.10
2018-04-30T18:20:22.827Z,11.00
2018-04-30T18:22:49.460Z,10.90
2018-04-30T18:25:16.462Z,10.90
2018-04-30T18:27:45.003Z,10.90
2018-04-30T18:30:11.471Z,11.00
2018-04-30T18:32:37.951Z,11.00
2018-04-30T18:35:04.507Z,11.00
2018-04-30T18:37:31.979Z,11.00
2018-04-30T18:39:58.311Z,10.90
2018-04-30T18:42:24.776Z,10.90
2018-04-30T18:44:51.057Z,10.80
2018-04-30T18:47:17.627Z,10.80
2018-04-30T18:49:44.904Z,10.80
2018-04-30T18:52:11.226Z,10.80
2018-04-30T18:54:37.579Z,10.70
2018-04-30T18:57:04.565Z,10.70
2018-04-30T18:59:30.992Z,10.70
2018-04-30T19:01:57.400Z,10.70
2018-04-30T19:04:23.694Z,10.70
2018-04-30T19:06:51.112Z,10.70
2018-04-30T19:09:17.406Z,10.70
2018-04-30T19:11:43.690Z,10.70
2018-04-30T19:14:10.086Z,10.70
2018-04-30T19:16:37.171Z,10.70
2018-04-30T19:19:03.586Z,10.70
2018-04-30T19:21:29.809Z,10.70
2018-04-30T19:23:56.792Z,10.60
2018-04-30T19:26:22.997Z,10.60
2018-04-30T19:28:49.455Z,10.60
2018-04-30T19:31:15.721Z,10.50
2018-04-30T19:33:42.076Z,10.40
2018-04-30T19:36:08.319Z,10.40
2018-04-30T19:38:34.573Z,10.40
2018-04-30T19:41:00.757Z,10.40
2018-04-30T19:43:27.349Z,10.30
2018-04-30T19:45:53.859Z,10.20
2018-04-30T19:48:20.249Z,10.10
2018-04-30T19:50:46.831Z,10.00
2018-04-30T19:53:13.914Z,10.00
2018-04-30T19:55:40.423Z,10.00
2018-04-30T20:03:18.637Z,9.80
2018-04-30T20:05:46.040Z,9.80
2018-04-30T20:08:12.253Z,9.80
2018-04-30T20:10:38.538Z,9.70
2018-04-30T20:15:39.522Z,9.60
2018-04-30T20:18:06.835Z,9.60
2018-04-30T20:20:33.235Z,9.60
2018-04-30T20:23:00.773Z,9.50
2018-04-30T20:25:27.111Z,9.40
2018-04-30T20:27:53.326Z,9.40
2018-04-30T20:30:19.670Z,9.40
2018-04-30T20:32:46.129Z,9.40
2018-04-30T20:35:12.351Z,9.40
2018-04-30T20:37:38.728Z,9.30
2018-04-30T20:40:05.338Z,9.30
2018-04-30T20:42:32.613Z,9.30
2018-04-30T20:44:59.050Z,9.30
2018-04-30T20:47:25.378Z,9.30
2018-04-30T20:49:51.883Z,9.20
2018-04-30T20:52:18.154Z,9.20
2018-04-30T20:54:45.355Z,9.20
2018-04-30T20:57:12.045Z,9.20
2018-04-30T20:59:38.299Z,9.20
2018-04-30T21:02:04.582Z,9.10
2018-04-30T21:04:30.729Z,9.10
2018-04-30T21:06:56.994Z,9.10
2018-04-30T21:09:23.530Z,9.10
2018-04-30T21:11:49.666Z,9.00
2018-04-30T21:14:15.976Z,9.00
2018-04-30T21:16:42.182Z,9.00
2018-04-30T21:19:09.123Z,9.00
2018-04-30T21:21:35.458Z,9.00
2018-04-30T21:24:01.853Z,9.00
2018-04-30T21:26:28.352Z,9.00
2018-04-30T21:28:54.496Z,8.90
2018-04-30T21:31:21.749Z,8.90
2018-04-30T21:33:47.866Z,8.80
2018-04-30T21:36:14.047Z,8.80
2018-04-30T21:38:40.145Z,8.80
2018-04-30T21:41:06.597Z,8.80
2018-04-30T21:43:32.706Z,8.70
2018-04-30T21:45:58.863Z,8.60
2018-04-30T21:48:24.966Z,8.60
2018-04-30T21:50:51.085Z,8.60
2018-04-30T21:53:17.280Z,8.60
2018-04-30T21:55:43.703Z,8.60
2018-04-30T21:58:10.581Z,8.50
2018-04-30T22:00:36.781Z,8.50
2018-04-30T22:03:03.219Z,8.50
2018-04-30T22:05:29.329Z,8.50
2018-04-30T22:07:55.453Z,8.50
2018-04-30T22:10:22.308Z,8.40
2018-04-30T22:12:48.509Z,8.40
2018-04-30T22:15:14.641Z,8.40
2018-04-30T22:17:40.912Z,8.40
2018-04-30T22:20:08.026Z,8.30
2018-04-30T22:22:35.021Z,8.30
2018-04-30T22:25:01.177Z,8.20
2018-04-30T22:27:27.308Z,8.30
2018-04-30T22:29:54.132Z,8.20
2018-04-30T22:32:20.554Z,8.20
2018-04-30T22:34:46.890Z,8.20
2018-04-30T22:37:13.875Z,8.10
2018-04-30T22:39:40.414Z,8.10
2018-04-30T22:42:06.541Z,8.10
2018-04-30T22:44:32.715Z,8.00
2018-04-30T22:46:58.817Z,8.00
2018-04-30T22:49:25.703Z,8.00
2018-04-30T22:51:51.809Z,8.00
2018-04-30T22:54:17.903Z,8.00
2018-04-30T22:56:44.741Z,8.00
2018-04-30T22:59:11.589Z,7.90
2018-04-30T23:01:38.452Z,7.80
2018-04-30T23:04:04.610Z,7.80
2018-04-30T23:06:30.705Z,7.80
2018-04-30T23:08:56.828Z,7.70
2018-04-30T23:11:23.188Z,7.70
2018-04-30T23:13:49.376Z,7.70
2018-04-30T23:16:16.310Z,7.70
2018-04-30T23:18:43.229Z,7.70
2018-04-30T23:21:10.761Z,7.70
2018-04-30T23:23:36.887Z,7.70
2018-04-30T23:26:03.441Z,7.70
2018-04-30T23:28:29.581Z,7.70
2018-04-30T23:30:55.718Z,7.70
2018-04-30T23:33:21.850Z,7.70
2018-04-30T23:35:47.960Z,7.70
2018-04-30T23:38:14.737Z,7.70
2018-04-30T23:40:40.920Z,7.70
2018-04-30T23:43:07.070Z,7.70
2018-04-30T23:45:33.167Z,7.70
2018-04-30T23:47:59.294Z,7.60
2018-04-30T23:50:25.469Z,7.50
2018-04-30T23:52:51.689Z,7.50
2018-04-30T23:55:18.544Z,7.50
2018-04-30T23:57:45.445Z,7.50
